createdAt,value
2017-09-17T00:00:02.882Z,0
2017-09-17T00:01:02.548Z,0
2017-09-17T00:02:02.844Z,0
2017-09-17T00:03:02.848Z,0
2017-09-17T00:04:02.513Z,0
2017-09-17T00:05:02.820Z,0
2017-09-17T00:06:02.815Z,0
2017-09-17T00:07:02.810Z,0
2017-09-17T00:08:02.789Z,0
2017-09-17T00:09:02.791Z,0
2017-09-17T00:10:02.785Z,0
2017-09-17T00:11:02.766Z,0
2017-09-17T00:12:02.756Z,0
2017-09-17T00:13:02.746Z,0
2017-09-17T00:14:02.735Z,0
2017-09-17T00:15:02.733Z,0
2017-09-17T00:16:02.413Z,0
2017-09-17T00:17:02.712Z,0
2017-09-17T00:18:02.403Z,0
2017-09-17T00:19:02.694Z,0
2017-09-17T00:20:02.383Z,0
2017-09-17T00:21:02.673Z,0
2017-09-17T00:22:02.353Z,0
2017-09-17T00:23:02.659Z,0
2017-09-17T00:24:02.668Z,0
2017-09-17T00:25:02.639Z,0
2017-09-17T00:26:02.634Z,0
2017-09-17T00:27:02.625Z,0
2017-09-17T00:28:02.613Z,0
2017-09-17T00:29:02.606Z,0
2017-09-17T00:30:02.295Z,0
2017-09-17T00:31:02.577Z,0
2017-09-17T00:32:02.579Z,0
2017-09-17T00:33:02.268Z,0
2017-09-17T00:34:02.552Z,0
2017-09-17T00:35:02.242Z,0
2017-09-17T00:36:02.232Z,0
2017-09-17T00:37:02.532Z,0
2017-09-17T00:38:02.520Z,0
2017-09-17T00:39:02.511Z,0
2017-09-17T00:40:02.504Z,0
2017-09-17T00:41:02.186Z,0
2017-09-17T00:42:02.483Z,0
2017-09-17T00:43:02.166Z,0
2017-09-17T00:44:02.464Z,0
2017-09-17T00:45:02.464Z,0
2017-09-17T00:46:02.449Z,0
2017-09-17T00:47:02.433Z,0
2017-09-17T00:48:02.130Z,0
2017-09-17T00:49:02.417Z,0
2017-09-17T00:50:02.410Z,0
2017-09-17T00:51:02.133Z,0
2017-09-17T00:52:02.091Z,0
2017-09-17T00:53:02.389Z,0
2017-09-17T00:54:02.375Z,0
2017-09-17T00:55:02.363Z,0
2017-09-17T00:56:02.357Z,0
2017-09-17T00:57:02.350Z,0
2017-09-17T00:58:02.361Z,0
2017-09-17T00:59:02.322Z,0
2017-09-17T01:00:02.315Z,0
2017-09-17T01:01:02.307Z,0
2017-09-17T01:02:02.307Z,0
2017-09-17T01:03:02.287Z,0
2017-09-17T01:04:02.284Z,0
2017-09-17T01:05:02.268Z,0
2017-09-17T01:06:02.258Z,0
2017-09-17T01:07:02.246Z,0
2017-09-17T01:08:01.947Z,0
2017-09-17T01:09:02.226Z,0
2017-09-17T01:10:01.914Z,0
2017-09-17T01:11:01.595Z,0
2017-09-17T01:12:01.894Z,0
2017-09-17T01:13:02.200Z,0
2017-09-17T01:14:01.880Z,0
2017-09-17T01:15:02.179Z,0
2017-09-17T01:16:02.414Z,0
2017-09-17T01:17:01.844Z,0
2017-09-17T01:18:01.839Z,0
2017-09-17T01:19:01.837Z,0
2017-09-17T01:20:01.820Z,0
2017-09-17T01:21:01.811Z,0
2017-09-17T01:22:02.118Z,0
2017-09-17T01:23:02.109Z,0
2017-09-17T01:24:02.088Z,0
2017-09-17T01:25:02.078Z,0
2017-09-17T01:26:02.069Z,0
2017-09-17T01:27:02.061Z,0
2017-09-17T01:28:01.744Z,0
2017-09-17T01:29:02.052Z,0
2017-09-17T01:30:01.721Z,0
2017-09-17T01:31:02.028Z,0
2017-09-17T01:32:02.023Z,0
2017-09-17T01:33:02.008Z,0
2017-09-17T01:34:01.689Z,0
2017-09-17T01:35:01.681Z,0
2017-09-17T01:36:01.978Z,0
2017-09-17T01:37:01.352Z,0
2017-09-17T01:38:01.646Z,0
2017-09-17T01:39:01.645Z,0
2017-09-17T01:40:01.936Z,0
2017-09-17T01:41:01.925Z,0
2017-09-17T01:42:01.921Z,0
2017-09-17T01:43:01.614Z,0
2017-09-17T01:44:01.599Z,0
2017-09-17T01:45:01.583Z,0
2017-09-17T01:46:01.572Z,0
2017-09-17T01:47:01.556Z,0
2017-09-17T01:48:01.561Z,0
2017-09-17T01:49:01.538Z,0
2017-09-17T01:50:01.846Z,0
2017-09-17T01:51:01.525Z,0
2017-09-17T01:52:01.821Z,0
2017-09-17T01:53:01.814Z,0
2017-09-17T01:54:01.808Z,0
2017-09-17T01:55:01.802Z,0
2017-09-17T01:56:01.782Z,0
2017-09-17T01:57:01.464Z,0
2017-09-17T01:58:01.453Z,0
2017-09-17T01:59:01.451Z,0
2017-09-17T02:00:01.746Z,0
2017-09-17T02:01:01.430Z,0
2017-09-17T02:02:01.417Z,0
2017-09-17T02:03:01.409Z,0
2017-09-17T02:04:01.399Z,0
2017-09-17T02:05:01.387Z,0
2017-09-17T02:06:01.689Z,0
2017-09-17T02:07:01.682Z,0
2017-09-17T02:08:01.365Z,0
2017-09-17T02:09:01.664Z,0
2017-09-17T02:10:01.646Z,0
2017-09-17T02:11:01.644Z,0
2017-09-17T02:12:01.315Z,0
2017-09-17T02:13:01.617Z,0
2017-09-17T02:14:01.612Z,0
2017-09-17T02:15:00.985Z,0
2017-09-17T02:16:01.275Z,0
2017-09-17T02:17:01.584Z,0
2017-09-17T02:18:01.578Z,0
2017-09-17T02:19:01.565Z,0
2017-09-17T02:20:01.247Z,0
2017-09-17T02:21:01.541Z,0
2017-09-17T02:22:00.915Z,0
2017-09-17T02:23:01.524Z,0
2017-09-17T02:24:01.519Z,0
2017-09-17T02:25:01.506Z,0
2017-09-17T02:26:01.497Z,0
2017-09-17T02:27:01.488Z,0
2017-09-17T02:28:01.477Z,0
2017-09-17T02:29:01.156Z,0
2017-09-17T02:30:01.466Z,0
2017-09-17T02:31:01.457Z,0
2017-09-17T02:32:01.433Z,0
2017-09-17T02:33:01.432Z,0
2017-09-17T02:34:01.106Z,0
2017-09-17T02:35:01.410Z,0
2017-09-17T02:36:01.397Z,0
2017-09-17T02:37:01.083Z,0
2017-09-17T02:38:01.381Z,0
2017-09-17T02:39:01.068Z,0
2017-09-17T02:40:01.051Z,0
2017-09-17T02:41:01.369Z,0
2017-09-17T02:42:01.034Z,0
2017-09-17T02:43:01.025Z,0
2017-09-17T02:44:01.321Z,0
2017-09-17T02:45:01.306Z,0
2017-09-17T02:46:01.292Z,0
2017-09-17T02:47:01.301Z,0
2017-09-17T02:48:01.280Z,0
2017-09-17T02:49:00.970Z,0
2017-09-17T02:50:01.260Z,0
2017-09-17T02:51:00.939Z,0
2017-09-17T02:52:01.238Z,0
2017-09-17T02:53:01.236Z,0
2017-09-17T02:54:01.230Z,0
2017-09-17T02:55:01.215Z,0
2017-09-17T02:56:00.897Z,0
2017-09-17T02:57:01.190Z,0
2017-09-17T02:58:00.881Z,0
2017-09-17T02:59:01.174Z,0
2017-09-17T03:00:00.858Z,0
2017-09-17T03:01:01.156Z,0
2017-09-17T03:02:00.836Z,0
2017-09-17T03:03:01.134Z,0
2017-09-17T03:04:01.118Z,0
2017-09-17T03:05:00.806Z,0
2017-09-17T03:06:01.103Z,0
2017-09-17T03:07:00.788Z,0
2017-09-17T03:08:00.776Z,0
2017-09-17T03:09:00.776Z,0
2017-09-17T03:10:00.755Z,0
2017-09-17T03:11:00.745Z,0
2017-09-17T03:12:01.041Z,0
2017-09-17T03:13:00.722Z,0
2017-09-17T03:14:00.717Z,0
2017-09-17T03:15:01.021Z,0
2017-09-17T03:16:01.040Z,0
2017-09-17T03:17:00.992Z,0
2017-09-17T03:18:00.981Z,0
2017-09-17T03:19:00.972Z,0
2017-09-17T03:20:00.964Z,0
2017-09-17T03:21:00.646Z,0
2017-09-17T03:22:00.945Z,0
2017-09-17T03:23:02.962Z,0
2017-09-17T03:24:00.922Z,0
2017-09-17T03:25:00.913Z,0
2017-09-17T03:26:00.593Z,0
2017-09-17T03:27:00.895Z,0
2017-09-17T03:28:00.885Z,0
2017-09-17T03:29:00.875Z,0
2017-09-17T03:30:00.559Z,0
2017-09-17T03:31:00.865Z,0
2017-09-17T03:32:00.837Z,0
2017-09-17T03:33:00.839Z,0
2017-09-17T03:34:00.833Z,0
2017-09-17T03:35:00.188Z,0
2017-09-17T03:36:00.809Z,0
2017-09-17T03:37:00.485Z,0
2017-09-17T03:37:59.854Z,0
2017-09-17T03:39:00.778Z,0
2017-09-17T03:40:00.758Z,0
2017-09-17T03:41:00.753Z,0
2017-09-17T03:42:00.746Z,0
2017-09-17T03:43:00.737Z,0
2017-09-17T03:44:00.725Z,0
2017-09-17T03:45:00.407Z,0
2017-09-17T03:46:00.389Z,0
2017-09-17T03:47:00.386Z,0
2017-09-17T03:48:00.725Z,0
2017-09-17T03:49:00.370Z,0
2017-09-17T03:50:00.669Z,0
2017-09-17T03:51:00.659Z,0
2017-09-17T03:52:00.648Z,0
2017-09-17T03:53:00.324Z,0
2017-09-17T03:54:00.624Z,0
2017-09-17T03:55:00.314Z,0
2017-09-17T03:56:00.603Z,0
2017-09-17T03:57:00.598Z,0
2017-09-17T03:58:00.308Z,0
2017-09-17T03:59:00.261Z,0
2017-09-17T04:00:00.564Z,0
2017-09-17T04:01:00.248Z,0
2017-09-17T04:02:00.541Z,0
2017-09-17T04:03:00.535Z,0
2017-09-17T04:04:00.529Z,0
2017-09-17T04:05:00.519Z,0
2017-09-17T04:06:00.506Z,0
2017-09-17T04:07:00.499Z,0
2017-09-17T04:08:00.475Z,0
2017-09-17T04:09:00.165Z,0
2017-09-17T04:10:00.464Z,0
2017-09-17T04:11:00.457Z,0
2017-09-17T04:12:00.135Z,0
2017-09-17T04:13:00.142Z,0
2017-09-17T04:14:00.112Z,0
2017-09-17T04:15:00.106Z,0
2017-09-17T04:15:59.811Z,0
2017-09-17T04:17:00.399Z,0
2017-09-17T04:18:00.073Z,0
2017-09-17T04:19:00.372Z,0
2017-09-17T04:20:00.374Z,0
2017-09-17T04:21:00.359Z,0
2017-09-17T04:22:00.030Z,0
2017-09-17T04:23:00.338Z,0
2017-09-17T04:24:00.321Z,0
2017-09-17T04:25:00.317Z,0
2017-09-17T04:25:59.992Z,0
2017-09-17T04:27:00.293Z,0
2017-09-17T04:28:00.285Z,0
2017-09-17T04:29:00.272Z,0
2017-09-17T04:30:00.261Z,0
2017-09-17T04:30:59.943Z,0
2017-09-17T04:32:00.236Z,0
2017-09-17T04:32:59.922Z,0
2017-09-17T04:33:59.916Z,5
2017-09-17T04:35:00.212Z,5
2017-09-17T04:36:00.201Z,5
2017-09-17T04:37:00.193Z,5
2017-09-17T04:37:59.869Z,5
2017-09-17T04:38:59.862Z,5
2017-09-17T04:40:00.170Z,10
2017-09-17T04:40:59.532Z,10
2017-09-17T04:42:00.152Z,10
2017-09-17T04:43:00.134Z,10
2017-09-17T04:44:00.124Z,10
2017-09-17T04:44:59.801Z,15
2017-09-17T04:46:00.106Z,15
2017-09-17T04:47:00.093Z,15
2017-09-17T04:48:00.084Z,20
2017-09-17T04:49:00.068Z,20
2017-09-17T04:50:00.060Z,25
2017-09-17T04:51:00.047Z,25
2017-09-17T04:52:00.039Z,25
2017-09-17T04:53:00.033Z,30
2017-09-17T04:54:00.018Z,30
2017-09-17T04:55:00.009Z,30
2017-09-17T04:55:59.998Z,35
2017-09-17T04:56:59.680Z,35
2017-09-17T04:57:59.975Z,35
2017-09-17T04:58:59.969Z,40
2017-09-17T04:59:59.967Z,40
2017-09-17T05:00:59.947Z,45
2017-09-17T05:01:59.948Z,45
2017-09-17T05:02:59.936Z,45
2017-09-17T05:03:59.300Z,45
2017-09-17T05:04:59.601Z,50
2017-09-17T05:05:59.591Z,50
2017-09-17T05:06:59.889Z,55
2017-09-17T05:07:59.880Z,55
2017-09-17T05:08:59.590Z,60
2017-09-17T05:09:59.581Z,60
2017-09-17T05:10:59.852Z,60
2017-09-17T05:11:59.839Z,70
2017-09-17T05:12:59.832Z,75
2017-09-17T05:13:59.821Z,80
2017-09-17T05:14:59.508Z,80
2017-09-17T05:15:59.802Z,90
2017-09-17T05:16:59.795Z,90
2017-09-17T05:17:59.470Z,95
2017-09-17T05:18:59.812Z,100
2017-09-17T05:19:59.146Z,100
2017-09-17T05:20:59.442Z,100
2017-09-17T05:21:59.427Z,105
2017-09-17T05:22:59.423Z,110
2017-09-17T05:23:59.104Z,110
2017-09-17T05:24:59.399Z,115
2017-09-17T05:25:59.392Z,120
2017-09-17T05:26:59.381Z,125
2017-09-17T05:27:59.690Z,130
2017-09-17T05:28:59.679Z,135
2017-09-17T05:29:59.353Z,140
2017-09-17T05:30:59.348Z,135
2017-09-17T05:31:59.046Z,130
2017-09-17T05:32:59.329Z,135
2017-09-17T05:33:59.628Z,130
2017-09-17T05:34:59.620Z,140
2017-09-17T05:35:59.615Z,140
2017-09-17T05:36:59.597Z,150
2017-09-17T05:37:59.599Z,160
2017-09-17T05:38:59.587Z,160
2017-09-17T05:39:59.582Z,165
2017-09-17T05:40:59.265Z,160
2017-09-17T05:41:59.555Z,160
2017-09-17T05:42:59.243Z,155
2017-09-17T05:43:59.244Z,160
2017-09-17T05:44:59.535Z,175
2017-09-17T05:45:58.606Z,185
2017-09-17T05:46:58.591Z,185
2017-09-17T05:47:59.209Z,180
2017-09-17T05:48:59.198Z,180
2017-09-17T05:49:59.493Z,190
2017-09-17T05:50:58.867Z,195
2017-09-17T05:51:59.177Z,200
2017-09-17T05:52:59.489Z,215
2017-09-17T05:53:59.467Z,225
2017-09-17T05:54:59.455Z,245
2017-09-17T05:55:59.454Z,210
2017-09-17T05:56:59.441Z,250
2017-09-17T05:57:59.451Z,270
2017-09-17T05:58:59.427Z,270
2017-09-17T05:59:59.112Z,285
2017-09-17T06:00:59.101Z,295
2017-09-17T06:01:59.096Z,290
2017-09-17T06:02:59.094Z,295
2017-09-17T06:03:59.400Z,300
2017-09-17T06:04:59.088Z,290
2017-09-17T06:05:59.420Z,295
2017-09-17T06:06:59.375Z,315
2017-09-17T06:07:59.077Z,325
2017-09-17T06:08:59.056Z,330
2017-09-17T06:09:59.358Z,350
2017-09-17T06:10:58.732Z,370
2017-09-17T06:11:59.354Z,380
2017-09-17T06:12:58.740Z,380
2017-09-17T06:13:59.330Z,395
2017-09-17T06:14:59.023Z,395
2017-09-17T06:15:59.023Z,420
2017-09-17T06:16:59.016Z,425
2017-09-17T06:17:59.003Z,440
2017-09-17T06:18:59.009Z,445
2017-09-17T06:19:59.320Z,455
2017-09-17T06:20:59.314Z,455
2017-09-17T06:21:59.001Z,460
2017-09-17T06:22:58.989Z,485
2017-09-17T06:23:58.986Z,490
2017-09-17T06:24:59.299Z,500
2017-09-17T06:25:59.291Z,495
2017-09-17T06:26:58.980Z,360
2017-09-17T06:27:59.284Z,495
2017-09-17T06:28:58.968Z,525
2017-09-17T06:29:59.269Z,510
2017-09-17T06:30:59.283Z,475
2017-09-17T06:31:58.956Z,550
2017-09-17T06:32:59.272Z,350
2017-09-17T06:33:58.957Z,515
2017-09-17T06:34:59.276Z,485
2017-09-17T06:35:58.954Z,400
2017-09-17T06:36:59.275Z,395
2017-09-17T06:37:59.263Z,450
2017-09-17T06:38:58.950Z,560
2017-09-17T06:39:59.258Z,400
2017-09-17T06:40:59.263Z,515
2017-09-17T06:41:59.257Z,520
2017-09-17T06:42:59.260Z,510
2017-09-17T06:43:59.251Z,445
2017-09-17T06:44:59.250Z,450
2017-09-17T06:45:59.250Z,465
2017-09-17T06:46:59.248Z,480
2017-09-17T06:47:58.633Z,515
2017-09-17T06:48:58.933Z,500
2017-09-17T06:49:58.933Z,605
2017-09-17T06:50:59.240Z,590
2017-09-17T06:51:58.937Z,545
2017-09-17T06:52:58.936Z,580
2017-09-17T06:53:59.252Z,615
2017-09-17T06:54:58.933Z,555
2017-09-17T06:55:59.250Z,600
2017-09-17T06:56:58.624Z,565
2017-09-17T06:57:58.929Z,510
2017-09-17T06:58:59.241Z,535
2017-09-17T06:59:59.238Z,495
2017-09-17T07:00:59.246Z,505
2017-09-17T07:01:59.244Z,540
2017-09-17T07:02:59.245Z,530
2017-09-17T07:03:59.238Z,580
2017-09-17T07:04:59.233Z,615
2017-09-17T07:05:58.932Z,655
2017-09-17T07:06:59.234Z,700
2017-09-17T07:07:59.249Z,635
2017-09-17T07:08:58.925Z,655
2017-09-17T07:09:58.618Z,650
2017-09-17T07:10:59.233Z,520
2017-09-17T07:11:58.936Z,545
2017-09-17T07:12:58.924Z,495
2017-09-17T07:13:59.240Z,470
2017-09-17T07:14:59.248Z,480
2017-09-17T07:15:59.239Z,555
2017-09-17T07:16:59.238Z,510
2017-09-17T07:17:59.236Z,480
2017-09-17T07:18:59.237Z,475
2017-09-17T07:19:58.923Z,500
2017-09-17T07:20:58.930Z,450
2017-09-17T07:21:59.228Z,465
2017-09-17T07:22:59.239Z,570
2017-09-17T07:23:58.929Z,535
2017-09-17T07:24:59.233Z,515
2017-09-17T07:25:58.925Z,505
2017-09-17T07:26:58.949Z,495
2017-09-17T07:27:59.235Z,515
2017-09-17T07:28:59.226Z,545
2017-09-17T07:29:59.227Z,610
2017-09-17T07:30:59.229Z,600
2017-09-17T07:31:59.224Z,580
2017-09-17T07:32:59.227Z,575
2017-09-17T07:33:59.226Z,545
2017-09-17T07:34:58.911Z,585
2017-09-17T07:35:58.908Z,610
2017-09-17T07:36:59.230Z,585
2017-09-17T07:37:59.221Z,585
2017-09-17T07:38:58.919Z,565
2017-09-17T07:39:59.224Z,605
2017-09-17T07:40:59.215Z,660
2017-09-17T07:41:58.917Z,690
2017-09-17T07:42:59.219Z,715
2017-09-17T07:43:59.218Z,720
2017-09-17T07:44:59.213Z,625
2017-09-17T07:45:59.211Z,650
2017-09-17T07:46:58.910Z,585
2017-09-17T07:47:59.412Z,655
2017-09-17T07:48:59.215Z,740
2017-09-17T07:49:59.217Z,720
2017-09-17T07:50:58.901Z,700
2017-09-17T07:51:59.211Z,615
2017-09-17T07:52:59.217Z,575
2017-09-17T07:53:59.216Z,565
2017-09-17T07:54:58.904Z,585
2017-09-17T07:55:58.590Z,570
2017-09-17T07:56:58.591Z,555
2017-09-17T07:57:58.894Z,590
2017-09-17T07:58:58.589Z,645
2017-09-17T07:59:58.896Z,700
2017-09-17T08:00:59.204Z,700
2017-09-17T08:01:59.203Z,690
2017-09-17T08:02:59.206Z,555
2017-09-17T08:03:58.903Z,430
2017-09-17T08:04:59.207Z,410
2017-09-17T08:05:58.893Z,405
2017-09-17T08:06:59.206Z,410
2017-09-17T08:07:59.207Z,415
2017-09-17T08:08:58.904Z,420
2017-09-17T08:09:59.202Z,425
2017-09-17T08:10:59.201Z,425
2017-09-17T08:11:58.891Z,430
2017-09-17T08:12:59.199Z,430
2017-09-17T08:13:59.198Z,435
2017-09-17T08:14:59.205Z,445
2017-09-17T08:15:59.220Z,450
2017-09-17T08:16:59.202Z,450
2017-09-17T08:17:59.190Z,455
2017-09-17T08:18:58.576Z,455
2017-09-17T08:19:58.257Z,455
2017-09-17T08:20:58.880Z,455
2017-09-17T08:21:59.179Z,455
2017-09-17T08:22:59.203Z,455
2017-09-17T08:23:58.876Z,455
2017-09-17T08:24:59.171Z,455
2017-09-17T08:25:58.864Z,455
2017-09-17T08:26:58.862Z,450
2017-09-17T08:27:59.174Z,450
2017-09-17T08:28:58.869Z,445
2017-09-17T08:29:58.861Z,445
2017-09-17T08:30:59.172Z,440
2017-09-17T08:31:59.164Z,440
2017-09-17T08:32:58.851Z,430
2017-09-17T08:33:58.849Z,435
2017-09-17T08:34:59.165Z,435
2017-09-17T08:35:58.846Z,435
2017-09-17T08:36:59.160Z,430
2017-09-17T08:37:58.843Z,430
2017-09-17T08:38:58.836Z,435
2017-09-17T08:39:59.145Z,440
2017-09-17T08:40:59.148Z,440
2017-09-17T08:41:58.829Z,440
2017-09-17T08:42:58.830Z,440
2017-09-17T08:43:59.143Z,445
2017-09-17T08:44:58.831Z,455
2017-09-17T08:45:59.137Z,465
2017-09-17T08:46:59.131Z,485
2017-09-17T08:47:59.071Z,495
2017-09-17T08:48:58.812Z,515
2017-09-17T08:49:58.507Z,520
2017-09-17T08:50:58.813Z,525
2017-09-17T08:51:59.133Z,530
2017-09-17T08:52:59.109Z,525
2017-09-17T08:53:59.125Z,520
2017-09-17T08:54:59.109Z,520
2017-09-17T08:55:59.105Z,520
2017-09-17T08:56:59.104Z,505
2017-09-17T08:57:59.131Z,500
2017-09-17T08:58:59.103Z,495
2017-09-17T08:59:59.099Z,490
2017-09-17T09:00:59.133Z,495
2017-09-17T09:01:59.100Z,495
2017-09-17T09:02:58.781Z,500
2017-09-17T09:03:58.779Z,505
2017-09-17T09:04:58.469Z,505
2017-09-17T09:05:58.784Z,495
2017-09-17T09:06:58.772Z,490
2017-09-17T09:07:58.803Z,485
2017-09-17T09:08:59.081Z,490
2017-09-17T09:09:58.769Z,490
2017-09-17T09:10:58.783Z,495
2017-09-17T09:11:59.073Z,490
2017-09-17T09:12:58.771Z,490
2017-09-17T09:13:58.765Z,490
2017-09-17T09:14:59.065Z,490
2017-09-17T09:15:58.757Z,490
2017-09-17T09:16:59.063Z,490
2017-09-17T09:17:59.063Z,490
2017-09-17T09:18:58.761Z,495
2017-09-17T09:19:58.752Z,495
2017-09-17T09:20:59.056Z,485
2017-09-17T09:21:58.747Z,470
2017-09-17T09:22:58.441Z,460
2017-09-17T09:23:58.950Z,450
2017-09-17T09:24:58.740Z,435
2017-09-17T09:25:58.782Z,425
2017-09-17T09:26:58.732Z,420
2017-09-17T09:27:58.736Z,425
2017-09-17T09:28:58.733Z,425
2017-09-17T09:29:58.733Z,430
2017-09-17T09:30:58.727Z,425
2017-09-17T09:31:58.728Z,425
2017-09-17T09:32:58.723Z,420
2017-09-17T09:33:59.037Z,420
2017-09-17T09:34:58.727Z,420
2017-09-17T09:35:58.716Z,420
2017-09-17T09:36:58.723Z,420
2017-09-17T09:37:59.029Z,420
2017-09-17T09:38:59.023Z,425
2017-09-17T09:39:59.021Z,425
2017-09-17T09:40:59.057Z,415
2017-09-17T09:41:59.020Z,410
2017-09-17T09:42:58.708Z,400
2017-09-17T09:43:58.742Z,395
2017-09-17T09:44:59.018Z,390
2017-09-17T09:45:59.012Z,385
2017-09-17T09:46:59.021Z,385
2017-09-17T09:47:59.005Z,375
2017-09-17T09:48:59.007Z,370
2017-09-17T09:49:59.010Z,360
2017-09-17T09:50:59.005Z,350
2017-09-17T09:51:59.005Z,340
2017-09-17T09:52:58.384Z,330
2017-09-17T09:53:58.377Z,320
2017-09-17T09:54:58.380Z,315
2017-09-17T09:55:58.378Z,305
2017-09-17T09:56:58.377Z,300
2017-09-17T09:57:58.996Z,295
2017-09-17T09:58:58.990Z,290
2017-09-17T09:59:58.684Z,290
2017-09-17T10:00:58.686Z,290
2017-09-17T10:01:58.980Z,285
2017-09-17T10:02:58.989Z,285
2017-09-17T10:03:58.669Z,280
2017-09-17T10:04:58.672Z,280
2017-09-17T10:05:58.666Z,280
2017-09-17T10:06:58.673Z,280
2017-09-17T10:07:58.974Z,280
2017-09-17T10:08:58.664Z,285
2017-09-17T10:09:58.665Z,285
2017-09-17T10:10:58.666Z,295
2017-09-17T10:11:58.039Z,305
2017-09-17T10:12:58.651Z,310
2017-09-17T10:13:58.961Z,315
2017-09-17T10:14:58.958Z,320
2017-09-17T10:15:58.649Z,325
2017-09-17T10:16:58.947Z,325
2017-09-17T10:17:58.645Z,320
2017-09-17T10:18:58.947Z,315
2017-09-17T10:19:58.950Z,310
2017-09-17T10:20:58.952Z,305
2017-09-17T10:21:58.941Z,295
2017-09-17T10:22:58.632Z,290
2017-09-17T10:23:58.942Z,285
2017-09-17T10:24:58.949Z,285
2017-09-17T10:25:58.942Z,280
2017-09-17T10:26:58.931Z,275
2017-09-17T10:27:58.924Z,270
2017-09-17T10:28:58.928Z,265
2017-09-17T10:29:58.923Z,265
2017-09-17T10:30:58.615Z,260
2017-09-17T10:31:58.924Z,255
2017-09-17T10:32:58.915Z,250
2017-09-17T10:33:58.604Z,245
2017-09-17T10:34:58.917Z,240
2017-09-17T10:35:58.902Z,235
2017-09-17T10:36:58.912Z,235
2017-09-17T10:37:58.906Z,235
2017-09-17T10:38:58.905Z,235
2017-09-17T10:39:58.901Z,230
2017-09-17T10:40:58.901Z,230
2017-09-17T10:41:58.889Z,230
2017-09-17T10:42:58.889Z,230
2017-09-17T10:43:58.892Z,230
2017-09-17T10:44:58.921Z,230
2017-09-17T10:45:58.894Z,225
2017-09-17T10:46:58.579Z,230
2017-09-17T10:47:58.892Z,235
2017-09-17T10:48:58.879Z,230
2017-09-17T10:49:58.876Z,235
2017-09-17T10:50:58.580Z,230
2017-09-17T10:51:58.250Z,230
2017-09-17T10:52:58.871Z,225
2017-09-17T10:53:58.556Z,220
2017-09-17T10:54:58.864Z,220
2017-09-17T10:55:58.554Z,220
2017-09-17T10:56:58.872Z,215
2017-09-17T10:57:58.549Z,215
2017-09-17T10:58:58.856Z,210
2017-09-17T10:59:57.918Z,210
2017-09-17T11:00:58.881Z,205
2017-09-17T11:01:58.837Z,205
2017-09-17T11:02:58.846Z,200
2017-09-17T11:03:58.845Z,200
2017-09-17T11:04:58.222Z,200
2017-09-17T11:05:58.519Z,200
2017-09-17T11:06:58.518Z,200
2017-09-17T11:07:58.518Z,200
2017-09-17T11:08:58.519Z,200
2017-09-17T11:09:58.517Z,200
2017-09-17T11:10:58.198Z,200
2017-09-17T11:11:58.505Z,195
2017-09-17T11:12:58.813Z,195
2017-09-17T11:13:58.505Z,195
2017-09-17T11:14:58.492Z,200
2017-09-17T11:15:58.493Z,200
2017-09-17T11:16:58.185Z,200
2017-09-17T11:17:58.799Z,205
2017-09-17T11:18:58.791Z,205
2017-09-17T11:19:58.793Z,205
2017-09-17T11:20:58.787Z,210
2017-09-17T11:21:58.785Z,210
2017-09-17T11:22:58.781Z,210
2017-09-17T11:23:58.472Z,210
2017-09-17T11:24:58.468Z,210
2017-09-17T11:25:58.783Z,210
2017-09-17T11:26:58.777Z,210
2017-09-17T11:27:58.460Z,210
2017-09-17T11:28:58.767Z,210
2017-09-17T11:29:58.449Z,215
2017-09-17T11:30:58.449Z,215
2017-09-17T11:31:58.754Z,215
2017-09-17T11:32:58.443Z,215
2017-09-17T11:33:58.443Z,215
2017-09-17T11:34:58.432Z,215
2017-09-17T11:35:58.436Z,220
2017-09-17T11:36:58.742Z,220
2017-09-17T11:37:58.449Z,220
2017-09-17T11:38:58.733Z,230
2017-09-17T11:39:58.425Z,235
2017-09-17T11:40:58.415Z,240
2017-09-17T11:41:58.733Z,245
2017-09-17T11:42:58.412Z,250
2017-09-17T11:43:58.715Z,255
2017-09-17T11:44:58.711Z,260
2017-09-17T11:45:58.411Z,265
2017-09-17T11:46:58.712Z,270
2017-09-17T11:47:58.399Z,270
2017-09-17T11:48:58.091Z,275
2017-09-17T11:49:58.394Z,280
2017-09-17T11:50:58.394Z,290
2017-09-17T11:51:58.695Z,300
2017-09-17T11:52:58.387Z,305
2017-09-17T11:53:58.077Z,310
2017-09-17T11:54:58.076Z,315
2017-09-17T11:55:58.068Z,315
2017-09-17T11:56:58.693Z,310
2017-09-17T11:57:58.683Z,320
2017-09-17T11:58:58.069Z,330
2017-09-17T11:59:58.363Z,340
2017-09-17T12:00:58.369Z,345
2017-09-17T12:01:58.361Z,335
2017-09-17T12:02:58.369Z,345
2017-09-17T12:03:58.684Z,335
2017-09-17T12:04:58.356Z,330
2017-09-17T12:05:58.352Z,330
2017-09-17T12:06:58.043Z,330
2017-09-17T12:07:58.350Z,320
2017-09-17T12:08:58.653Z,310
2017-09-17T12:09:58.038Z,300
2017-09-17T12:10:58.038Z,295
2017-09-17T12:11:58.027Z,290
2017-09-17T12:12:57.726Z,280
2017-09-17T12:13:58.028Z,270
2017-09-17T12:14:58.029Z,275
2017-09-17T12:15:58.642Z,275
2017-09-17T12:16:58.344Z,280
2017-09-17T12:17:58.022Z,280
2017-09-17T12:18:58.324Z,290
2017-09-17T12:19:58.018Z,305
2017-09-17T12:20:58.018Z,320
2017-09-17T12:21:57.706Z,320
2017-09-17T12:22:58.009Z,325
2017-09-17T12:23:58.632Z,335
2017-09-17T12:24:58.648Z,350
2017-09-17T12:25:58.315Z,360
2017-09-17T12:26:58.316Z,365
2017-09-17T12:27:58.661Z,365
2017-09-17T12:28:58.614Z,375
2017-09-17T12:29:58.313Z,380
2017-09-17T12:30:58.613Z,400
2017-09-17T12:31:58.017Z,405
2017-09-17T12:32:58.603Z,420
2017-09-17T12:33:58.308Z,420
2017-09-17T12:34:58.604Z,420
2017-09-17T12:35:58.617Z,410
2017-09-17T12:36:58.608Z,400
2017-09-17T12:37:58.294Z,385
2017-09-17T12:38:58.604Z,380
2017-09-17T12:39:58.597Z,380
2017-09-17T12:40:58.601Z,375
2017-09-17T12:41:58.289Z,365
2017-09-17T12:42:58.297Z,360
2017-09-17T12:43:58.597Z,350
2017-09-17T12:44:58.600Z,355
2017-09-17T12:45:58.593Z,355
2017-09-17T12:46:58.280Z,355
2017-09-17T12:47:58.593Z,345
2017-09-17T12:48:58.282Z,325
2017-09-17T12:49:57.966Z,310
2017-09-17T12:50:58.587Z,300
2017-09-17T12:51:58.583Z,300
2017-09-17T12:52:58.271Z,300
2017-09-17T12:53:58.582Z,310
2017-09-17T12:54:58.269Z,325
2017-09-17T12:55:58.576Z,325
2017-09-17T12:56:58.572Z,315
2017-09-17T12:57:58.597Z,295
2017-09-17T12:58:58.570Z,280
2017-09-17T12:59:58.275Z,270
2017-09-17T13:00:58.258Z,265
2017-09-17T13:01:58.261Z,255
2017-09-17T13:02:58.560Z,250
2017-09-17T13:03:58.254Z,250
2017-09-17T13:04:58.559Z,250
2017-09-17T13:05:58.559Z,245
2017-09-17T13:06:58.282Z,240
2017-09-17T13:07:58.241Z,235
2017-09-17T13:08:58.545Z,235
2017-09-17T13:09:58.244Z,230
2017-09-17T13:10:58.552Z,225
2017-09-17T13:11:58.239Z,220
2017-09-17T13:12:58.549Z,215
2017-09-17T13:13:58.231Z,215
2017-09-17T13:14:58.266Z,215
2017-09-17T13:15:58.546Z,220
2017-09-17T13:16:58.225Z,210
2017-09-17T13:17:58.224Z,210
2017-09-17T13:18:58.532Z,205
2017-09-17T13:19:58.531Z,210
2017-09-17T13:20:58.521Z,210
2017-09-17T13:21:58.219Z,210
2017-09-17T13:22:58.527Z,210
2017-09-17T13:23:58.517Z,210
2017-09-17T13:24:58.514Z,205
2017-09-17T13:25:58.203Z,205
2017-09-17T13:26:58.507Z,205
2017-09-17T13:27:58.504Z,205
2017-09-17T13:28:58.510Z,205
2017-09-17T13:29:57.882Z,200
2017-09-17T13:30:58.499Z,195
2017-09-17T13:31:57.881Z,200
2017-09-17T13:32:58.179Z,195
2017-09-17T13:33:58.187Z,195
2017-09-17T13:34:58.482Z,195
2017-09-17T13:35:58.488Z,200
2017-09-17T13:36:58.171Z,200
2017-09-17T13:37:58.172Z,200
2017-09-17T13:38:58.165Z,200
2017-09-17T13:39:58.166Z,200
2017-09-17T13:40:58.471Z,200
2017-09-17T13:41:58.164Z,205
2017-09-17T13:42:58.157Z,205
2017-09-17T13:43:57.859Z,205
2017-09-17T13:44:57.848Z,205
2017-09-17T13:45:57.842Z,205
2017-09-17T13:46:58.147Z,210
2017-09-17T13:47:58.462Z,210
2017-09-17T13:48:58.145Z,210
2017-09-17T13:49:58.147Z,210
2017-09-17T13:50:58.136Z,215
2017-09-17T13:51:57.825Z,215
2017-09-17T13:52:58.135Z,215
2017-09-17T13:53:58.128Z,220
2017-09-17T13:54:58.436Z,225
2017-09-17T13:55:58.430Z,230
2017-09-17T13:56:58.119Z,230
2017-09-17T13:57:58.428Z,235
2017-09-17T13:58:58.428Z,235
2017-09-17T13:59:58.414Z,235
2017-09-17T14:00:58.424Z,235
2017-09-17T14:01:58.419Z,235
2017-09-17T14:02:58.425Z,240
2017-09-17T14:03:58.414Z,240
2017-09-17T14:04:58.095Z,250
2017-09-17T14:05:58.403Z,255